createdAt,value
2023-03-19T00:01:49.266Z,5.59
2023-03-19T00:04:20.239Z,5.57
2023-03-19T00:06:51.600Z,5.54
2023-03-19T00:09:22.730Z,5.49
2023-03-19T00:11:52.337Z,5.45
2023-03-19T00:14:52.532Z,5.40
2023-03-19T00:17:23.129Z,5.34
2023-03-19T00:19:53.937Z,5.29
2023-03-19T00:22:26.135Z,5.22
2023-03-19T00:24:55.935Z,5.17
2023-03-19T00:27:27.542Z,5.11
2023-03-19T00:29:56.955Z,5.06
2023-03-19T00:32:28.735Z,5.01
2023-03-19T00:35:02.410Z,4.97
2023-03-19T00:37:33.999Z,4.94
2023-03-19T00:40:07.218Z,4.91
2023-03-19T00:42:38.038Z,4.88
2023-03-19T00:45:08.465Z,4.83
2023-03-19T00:47:38.456Z,4.80
2023-03-19T00:50:11.311Z,4.79
2023-03-19T00:52:41.576Z,4.76
2023-03-19T00:55:12.292Z,4.70
2023-03-19T00:57:43.215Z,4.68
2023-03-19T01:02:44.826Z,4.64
2023-03-19T01:05:17.403Z,4.63
2023-03-19T01:07:46.736Z,4.64
2023-03-19T01:10:22.169Z,4.62
2023-03-19T01:12:52.948Z,4.61
2023-03-19T01:15:25.218Z,4.61
2023-03-19T01:17:55.055Z,4.61
2023-03-19T01:20:24.637Z,4.61
2023-03-19T01:22:55.482Z,4.63
2023-03-19T01:25:27.348Z,4.62
2023-03-19T01:28:09.546Z,4.61
2023-03-19T01:30:42.894Z,4.60
2023-03-19T01:33:17.139Z,4.60
2023-03-19T01:36:12.430Z,4.62
2023-03-19T01:38:56.759Z,4.61
2023-03-19T01:41:30.368Z,4.61
2023-03-19T01:44:28.088Z,4.61
2023-03-19T01:47:20.182Z,4.62
2023-03-19T01:50:30.184Z,4.64
2023-03-19T01:53:30.545Z,4.62
2023-03-19T01:56:28.218Z,4.58
2023-03-19T01:59:26.654Z,4.53
2023-03-19T02:02:31.529Z,4.48
2023-03-19T02:05:04.834Z,4.44
2023-03-19T02:07:37.990Z,4.37
2023-03-19T02:10:17.151Z,4.33
2023-03-19T02:12:53.186Z,4.29
2023-03-19T02:15:26.007Z,4.25
2023-03-19T02:17:56.341Z,4.24
2023-03-19T02:20:45.179Z,4.19
2023-03-19T02:23:23.459Z,4.14
2023-03-19T02:26:08.894Z,4.09
2023-03-19T02:28:43.603Z,4.04
2023-03-19T02:31:14.700Z,4.00
2023-03-19T02:34:40.198Z,3.95
2023-03-19T02:37:30.075Z,3.90
2023-03-19T02:40:10.764Z,3.90
2023-03-19T02:42:42.310Z,3.89
2023-03-19T02:45:12.930Z,3.87
2023-03-19T02:47:43.075Z,3.85
2023-03-19T02:50:14.456Z,3.80
2023-03-19T02:52:44.726Z,3.75
2023-03-19T02:55:14.945Z,3.72
2023-03-19T02:57:48.761Z,3.70
2023-03-19T03:00:19.637Z,3.68
2023-03-19T03:02:49.123Z,3.69
2023-03-19T03:05:21.795Z,3.67
2023-03-19T03:07:54.963Z,3.64
2023-03-19T03:10:26.849Z,3.61
2023-03-19T03:13:22.552Z,3.56
2023-03-19T03:15:54.775Z,3.50
2023-03-19T03:18:25.202Z,3.47
2023-03-19T03:20:54.210Z,3.47
2023-03-19T03:23:25.074Z,3.44
2023-03-19T03:25:56.256Z,3.40
2023-03-19T03:28:26.926Z,3.35
2023-03-19T03:31:00.701Z,3.31
2023-03-19T03:33:33.447Z,3.28
2023-03-19T03:36:05.107Z,3.26
2023-03-19T03:38:36.205Z,3.25
2023-03-19T03:41:06.370Z,3.24
2023-03-19T03:43:37.115Z,3.23
2023-03-19T03:46:09.265Z,3.25
2023-03-19T03:48:38.290Z,3.26
2023-03-19T03:51:09.046Z,3.28
2023-03-19T03:53:42.012Z,3.28
2023-03-19T03:56:12.804Z,3.27
2023-03-19T03:58:46.356Z,3.24
2023-03-19T04:01:20.498Z,3.20
2023-03-19T04:03:52.429Z,3.14
2023-03-19T04:06:24.359Z,3.09
2023-03-19T04:09:17.568Z,3.03
2023-03-19T04:11:47.018Z,2.98
2023-03-19T04:14:17.577Z,2.93
2023-03-19T04:16:51.523Z,2.89
2023-03-19T04:19:21.865Z,2.87
2023-03-19T04:21:52.519Z,2.88
2023-03-19T04:24:26.756Z,2.89
2023-03-19T04:26:58.389Z,2.89
2023-03-19T04:29:30.159Z,2.90
2023-03-19T04:32:02.634Z,2.91
2023-03-19T04:34:32.594Z,2.96
2023-03-19T04:37:02.326Z,3.03
2023-03-19T04:39:34.008Z,3.07
2023-03-19T04:42:08.958Z,3.08
2023-03-19T04:44:46.773Z,3.06
2023-03-19T04:47:17.400Z,3.08
2023-03-19T04:49:54.359Z,3.10
2023-03-19T04:52:25.359Z,3.12
2023-03-19T04:54:58.047Z,3.16
2023-03-19T04:57:28.073Z,3.22
2023-03-19T04:59:59.197Z,3.27
2023-03-19T05:02:33.490Z,3.31
2023-03-19T05:05:04.328Z,3.35
2023-03-19T05:07:35.424Z,3.38
2023-03-19T05:10:08.787Z,3.42
2023-03-19T05:13:07.492Z,3.46
2023-03-19T05:15:46.746Z,3.52
2023-03-19T05:18:20.061Z,3.58
2023-03-19T05:20:50.002Z,3.63
2023-03-19T05:23:24.632Z,3.69
2023-03-19T05:26:10.160Z,3.76
2023-03-19T05:28:59.340Z,3.83
2023-03-19T05:31:40.287Z,3.91
2023-03-19T05:34:12.377Z,3.97
2023-03-19T05:36:41.790Z,4.06
2023-03-19T05:39:16.922Z,4.15
2023-03-19T05:41:51.131Z,4.23
2023-03-19T05:44:24.247Z,4.31
2023-03-19T05:46:59.307Z,4.38
2023-03-19T05:49:33.478Z,4.43
2023-03-19T05:52:05.797Z,4.50
2023-03-19T05:54:39.048Z,4.57
2023-03-19T05:57:25.540Z,4.62
2023-03-19T06:00:19.592Z,4.68
2023-03-19T06:02:53.656Z,4.74
2023-03-19T06:05:30.564Z,4.81
2023-03-19T06:08:09.849Z,4.90
2023-03-19T06:11:02.966Z,4.98
2023-03-19T06:13:33.296Z,5.06
2023-03-19T06:16:08.623Z,5.16
2023-03-19T06:18:42.907Z,5.28
2023-03-19T06:21:13.966Z,5.39
2023-03-19T06:23:43.829Z,5.52
2023-03-19T06:26:15.190Z,5.67
2023-03-19T06:28:51.309Z,5.78
2023-03-19T06:31:21.916Z,5.88
2023-03-19T06:34:21.108Z,6.10
2023-03-19T06:36:54.160Z,6.38
2023-03-19T06:39:26.113Z,6.70
2023-03-19T06:41:56.219Z,7.02
2023-03-19T06:44:27.883Z,8.15
2023-03-19T06:46:58.126Z,10.30
2023-03-19T06:49:30.128Z,12.09
2023-03-19T06:51:59.220Z,13.85
2023-03-19T06:54:31.629Z,15.03
2023-03-19T06:57:07.882Z,15.75
2023-03-19T06:59:37.287Z,16.18
2023-03-19T07:02:12.858Z,15.96
2023-03-19T07:04:42.285Z,15.53
2023-03-19T07:07:14.966Z,15.58
2023-03-19T07:09:47.822Z,15.65
2023-03-19T07:12:17.214Z,15.76
2023-03-19T07:14:48.579Z,15.76
2023-03-19T07:17:17.724Z,15.84
2023-03-19T07:19:50.518Z,15.88
2023-03-19T07:22:22.869Z,16.00
2023-03-19T07:24:56.278Z,16.14
2023-03-19T07:27:30.095Z,16.52
2023-03-19T07:30:03.251Z,17.07
2023-03-19T07:32:32.819Z,17.33
2023-03-19T07:35:05.661Z,17.44
2023-03-19T07:37:35.554Z,17.59
2023-03-19T07:40:08.739Z,17.69
2023-03-19T07:42:38.947Z,17.76
2023-03-19T07:45:10.341Z,17.70
2023-03-19T07:47:41.536Z,17.46
2023-03-19T07:50:11.900Z,17.11
2023-03-19T07:52:43.218Z,16.47
2023-03-19T07:55:15.839Z,16.16
2023-03-19T07:57:46.935Z,16.09
2023-03-19T08:00:18.914Z,16.44
2023-03-19T08:02:50.271Z,16.56
2023-03-19T08:05:19.290Z,16.49
2023-03-19T08:07:51.568Z,16.08
2023-03-19T08:10:24.442Z,15.63
2023-03-19T08:12:59.103Z,15.35
2023-03-19T08:15:30.776Z,15.52
2023-03-19T08:18:01.573Z,16.75
2023-03-19T08:20:32.540Z,18.63
2023-03-19T08:23:04.776Z,20.23
2023-03-19T08:25:37.050Z,21.70
2023-03-19T08:28:07.728Z,23.35
2023-03-19T08:30:42.781Z,24.63
2023-03-19T08:33:12.743Z,25.57
2023-03-19T08:35:42.124Z,26.53
2023-03-19T08:38:13.359Z,27.30
2023-03-19T08:40:43.973Z,28.10
2023-03-19T08:43:14.836Z,29.01
2023-03-19T08:45:47.476Z,29.76
2023-03-19T08:48:18.681Z,30.70
2023-03-19T08:50:57.333Z,31.43
2023-03-19T08:53:27.063Z,31.67
2023-03-19T08:56:01.964Z,31.72
2023-03-19T08:58:33.042Z,31.62
2023-03-19T09:01:10.456Z,30.74
2023-03-19T09:03:41.353Z,29.20
2023-03-19T09:06:13.258Z,28.11
2023-03-19T09:08:44.441Z,27.18
2023-03-19T09:11:15.037Z,26.82
2023-03-19T09:13:46.516Z,27.19
2023-03-19T09:16:18.181Z,28.06
2023-03-19T09:18:48.883Z,29.03
2023-03-19T09:21:19.413Z,29.99
2023-03-19T09:23:49.994Z,31.00
2023-03-19T09:26:22.934Z,31.60
2023-03-19T09:28:52.230Z,31.69
2023-03-19T09:31:21.906Z,31.72
2023-03-19T09:33:54.497Z,31.84
2023-03-19T09:36:26.709Z,32.19
2023-03-19T09:38:59.277Z,32.17
2023-03-19T09:41:47.310Z,32.14
2023-03-19T09:44:35.854Z,32.31
2023-03-19T09:47:26.453Z,32.49
2023-03-19T09:50:04.572Z,32.72
2023-03-19T09:52:39.763Z,32.82
2023-03-19T09:55:38.933Z,32.74
2023-03-19T09:58:25.165Z,32.52
2023-03-19T10:00:58.385Z,32.46
2023-03-19T10:04:06.604Z,32.46
2023-03-19T10:06:41.787Z,32.46
2023-03-19T10:09:26.639Z,32.52
2023-03-19T10:12:19.471Z,32.26
2023-03-19T10:14:57.507Z,32.27
2023-03-19T10:17:40.655Z,32.26
2023-03-19T10:20:33.919Z,32.00
2023-03-19T10:23:41.188Z,31.44
2023-03-19T10:26:16.570Z,31.62
2023-03-19T10:28:56.620Z,31.97
2023-03-19T10:31:30.919Z,32.08
2023-03-19T10:34:27.348Z,31.83
2023-03-19T10:37:25.016Z,30.58
2023-03-19T10:39:59.788Z,29.68
2023-03-19T10:42:36.605Z,29.33
2023-03-19T10:45:15.453Z,29.30
2023-03-19T10:47:47.407Z,29.45
2023-03-19T10:50:27.075Z,29.59
2023-03-19T10:53:33.448Z,29.38
2023-03-19T10:56:18.929Z,28.70
2023-03-19T10:59:21.760Z,28.45
2023-03-19T11:02:03.420Z,28.44
2023-03-19T11:04:36.748Z,28.19
2023-03-19T11:07:13.546Z,28.15
2023-03-19T11:09:49.755Z,28.07
2023-03-19T11:12:23.603Z,27.78
2023-03-19T11:14:58.799Z,27.34
2023-03-19T11:18:06.836Z,26.94
2023-03-19T11:20:39.011Z,26.71
2023-03-19T11:23:20.887Z,26.88
2023-03-19T11:25:55.734Z,26.99
2023-03-19T11:28:33.208Z,27.14
2023-03-19T11:31:26.858Z,26.93
2023-03-19T11:34:21.876Z,26.50
2023-03-19T11:36:53.882Z,26.52
2023-03-19T11:39:31.000Z,26.71
2023-03-19T11:42:24.621Z,26.81
2023-03-19T11:45:18.054Z,26.63
2023-03-19T11:48:13.710Z,26.39
2023-03-19T11:51:06.517Z,26.01
2023-03-19T11:54:03.456Z,25.74
2023-03-19T11:56:49.559Z,25.48
2023-03-19T11:59:38.718Z,25.14
2023-03-19T12:02:27.928Z,25.32
2023-03-19T12:05:01.084Z,25.52
2023-03-19T12:07:43.402Z,25.33
2023-03-19T12:10:44.003Z,25.19
2023-03-19T12:13:43.280Z,25.16
2023-03-19T12:16:35.651Z,25.17
2023-03-19T12:19:35.339Z,24.89
2023-03-19T12:22:49.437Z,24.39
2023-03-19T12:25:37.759Z,23.99
2023-03-19T12:28:32.016Z,23.68
2023-03-19T12:31:20.917Z,23.27
2023-03-19T12:34:26.413Z,23.04
2023-03-19T12:37:14.432Z,22.81
2023-03-19T12:39:55.307Z,22.53
2023-03-19T12:42:30.664Z,22.25
2023-03-19T12:45:02.058Z,21.98
2023-03-19T12:47:41.042Z,21.86
2023-03-19T12:50:16.376Z,21.73
2023-03-19T12:52:51.923Z,21.66
2023-03-19T12:55:36.791Z,21.37
2023-03-19T12:58:20.877Z,21.15
2023-03-19T13:01:15.151Z,20.80
2023-03-19T13:04:03.245Z,20.38
2023-03-19T13:06:39.863Z,20.08
2023-03-19T13:09:39.623Z,19.82
2023-03-19T13:12:28.031Z,19.52
2023-03-19T13:15:02.318Z,19.33
2023-03-19T13:17:47.852Z,19.21
2023-03-19T13:20:32.696Z,19.11
2023-03-19T13:23:08.459Z,18.90
2023-03-19T13:25:43.062Z,18.58
2023-03-19T13:28:20.838Z,18.33
2023-03-19T13:31:10.185Z,18.12
2023-03-19T13:33:41.849Z,17.92
2023-03-19T13:36:15.489Z,17.77
2023-03-19T13:38:54.138Z,17.62
2023-03-19T13:41:37.113Z,17.53
2023-03-19T13:44:35.715Z,17.47
2023-03-19T13:47:30.764Z,17.38
2023-03-19T13:50:29.615Z,17.32
2023-03-19T13:53:34.259Z,17.26
2023-03-19T13:56:28.560Z,17.26
2023-03-19T13:59:19.173Z,17.15
2023-03-19T14:01:49.413Z,17.02
2023-03-19T14:04:37.773Z,16.93
2023-03-19T14:07:25.398Z,16.86
2023-03-19T14:10:02.031Z,16.75
2023-03-19T14:12:47.356Z,16.65
2023-03-19T14:15:25.777Z,16.53
2023-03-19T14:18:02.141Z,16.47
2023-03-19T14:20:40.784Z,16.41
2023-03-19T14:23:11.691Z,16.37
2023-03-19T14:26:03.192Z,16.31
2023-03-19T14:29:00.705Z,16.28
2023-03-19T14:31:43.534Z,16.27
2023-03-19T14:34:34.759Z,16.22
2023-03-19T14:37:26.018Z,16.14
2023-03-19T14:40:10.578Z,16.09
2023-03-19T14:43:10.795Z,16.04
2023-03-19T14:45:47.001Z,15.95
2023-03-19T14:48:38.034Z,15.79
2023-03-19T14:51:45.677Z,15.63
2023-03-19T14:54:29.717Z,15.47
2023-03-19T14:57:17.177Z,15.34
2023-03-19T14:59:51.464Z,15.22
2023-03-19T15:02:41.200Z,15.13
2023-03-19T15:05:34.368Z,15.06
2023-03-19T15:08:08.736Z,14.97
2023-03-19T15:10:59.812Z,14.90
2023-03-19T15:14:10.807Z,14.83
2023-03-19T15:17:25.613Z,14.73
2023-03-19T15:20:02.580Z,14.63
2023-03-19T15:22:38.920Z,14.56
2023-03-19T15:25:14.831Z,14.48
2023-03-19T15:27:44.514Z,14.42
2023-03-19T15:30:29.431Z,14.36
2023-03-19T15:33:20.177Z,14.28
2023-03-19T15:36:09.924Z,14.21
2023-03-19T15:39:00.577Z,14.13
2023-03-19T15:41:53.650Z,14.05
2023-03-19T15:44:39.174Z,13.98
2023-03-19T15:47:17.759Z,13.90
2023-03-19T15:49:58.449Z,13.84
2023-03-19T15:52:35.760Z,13.75
2023-03-19T15:55:09.914Z,13.68
2023-03-19T15:57:44.273Z,13.60
2023-03-19T16:00:21.875Z,13.53
2023-03-19T16:02:56.792Z,13.46
2023-03-19T16:05:32.272Z,13.39
2023-03-19T16:08:09.795Z,13.32
2023-03-19T16:10:43.876Z,13.23
2023-03-19T16:13:40.704Z,13.16
2023-03-19T16:16:23.476Z,13.07
2023-03-19T16:18:59.226Z,12.99
2023-03-19T16:21:43.659Z,12.91
2023-03-19T16:24:44.656Z,12.82
2023-03-19T16:27:22.077Z,12.75
2023-03-19T16:30:01.520Z,12.70
2023-03-19T16:32:33.727Z,12.66
2023-03-19T16:35:16.446Z,12.61
2023-03-19T16:37:50.159Z,12.54
2023-03-19T16:40:25.273Z,12.48
2023-03-19T16:43:08.107Z,12.42
2023-03-19T16:45:43.913Z,12.36
2023-03-19T16:48:17.356Z,12.30
2023-03-19T16:50:53.308Z,12.23
2023-03-19T16:53:33.385Z,12.17
2023-03-19T16:56:06.637Z,12.11
2023-03-19T16:58:44.405Z,12.06
2023-03-19T17:01:27.870Z,12.01
2023-03-19T17:04:02.874Z,11.95
2023-03-19T17:06:36.652Z,11.91
2023-03-19T17:09:09.553Z,11.87
2023-03-19T17:11:43.817Z,11.81
2023-03-19T17:14:42.119Z,11.73
2023-03-19T17:17:22.887Z,11.62
2023-03-19T17:19:57.126Z,11.56
2023-03-19T17:22:29.360Z,11.49
2023-03-19T17:25:01.003Z,11.44
2023-03-19T17:27:34.725Z,11.39
2023-03-19T17:30:15.083Z,11.34
2023-03-19T17:32:52.690Z,11.31
2023-03-19T17:35:26.710Z,11.27
2023-03-19T17:37:59.356Z,11.24
2023-03-19T17:40:35.385Z,11.20
2023-03-19T17:43:14.468Z,11.16
2023-03-19T17:45:54.344Z,11.13
2023-03-19T17:48:31.244Z,11.10
2023-03-19T17:51:06.477Z,11.08
2023-03-19T17:53:40.983Z,11.05
2023-03-19T17:56:18.041Z,11.02
2023-03-19T17:58:52.899Z,10.98
2023-03-19T18:01:28.949Z,10.94
2023-03-19T18:04:03.339Z,10.90
2023-03-19T18:06:41.713Z,10.86
2023-03-19T18:09:27.137Z,10.82
2023-03-19T18:11:58.818Z,10.79
2023-03-19T18:14:32.424Z,10.76
2023-03-19T18:17:04.353Z,10.75
2023-03-19T18:19:39.783Z,10.72
2023-03-19T18:22:21.566Z,10.68
2023-03-19T18:24:55.362Z,10.66
2023-03-19T18:27:28.129Z,10.63
2023-03-19T18:30:00.124Z,10.60
2023-03-19T18:32:36.820Z,10.57
2023-03-19T18:35:19.084Z,10.55
2023-03-19T18:37:53.157Z,10.53
2023-03-19T18:40:34.772Z,10.50
2023-03-19T18:43:15.530Z,10.46
2023-03-19T18:45:53.764Z,10.42
2023-03-19T18:48:33.056Z,10.38
2023-03-19T18:51:10.002Z,10.34
2023-03-19T18:53:45.721Z,10.34
2023-03-19T18:56:25.486Z,10.35
2023-03-19T18:59:02.973Z,10.33
2023-03-19T19:01:34.202Z,10.31
2023-03-19T19:04:13.517Z,10.26
2023-03-19T19:06:49.625Z,10.21
2023-03-19T19:09:21.926Z,10.16
2023-03-19T19:11:58.643Z,10.12
2023-03-19T19:14:32.016Z,10.04
2023-03-19T19:17:07.676Z,9.96
2023-03-19T19:19:43.036Z,9.89
2023-03-19T19:22:21.202Z,9.84
2023-03-19T19:24:53.759Z,9.81
2023-03-19T19:27:27.877Z,9.78
2023-03-19T19:29:58.574Z,9.73
2023-03-19T19:32:34.269Z,9.69
2023-03-19T19:35:08.533Z,9.67
2023-03-19T19:37:42.994Z,9.65
2023-03-19T19:40:18.816Z,9.62
2023-03-19T19:42:55.486Z,9.58
2023-03-19T19:45:37.888Z,9.56
2023-03-19T19:48:22.169Z,9.53
2023-03-19T19:50:55.734Z,9.52
2023-03-19T19:53:30.970Z,9.50
2023-03-19T19:56:19.897Z,9.48
2023-03-19T19:59:14.741Z,9.44
2023-03-19T20:01:52.306Z,9.39
2023-03-19T20:04:30.449Z,9.34
2023-03-19T20:07:07.569Z,9.30
2023-03-19T20:09:43.720Z,9.25
2023-03-19T20:12:35.617Z,9.19
2023-03-19T20:15:21.053Z,9.13
2023-03-19T20:17:56.240Z,9.09
2023-03-19T20:20:37.261Z,9.05
2023-03-19T20:23:16.544Z,9.01
2023-03-19T20:25:53.988Z,8.98
2023-03-19T20:28:39.139Z,8.94
2023-03-19T20:31:34.121Z,8.91
2023-03-19T20:34:07.091Z,8.87
2023-03-19T20:36:41.203Z,8.83
2023-03-19T20:39:24.425Z,8.80
2023-03-19T20:41:58.933Z,8.75
2023-03-19T20:44:35.722Z,8.69
2023-03-19T20:47:19.103Z,8.66
2023-03-19T20:49:52.411Z,8.61
2023-03-19T20:52:28.844Z,8.58
2023-03-19T20:55:01.770Z,8.56
2023-03-19T20:57:37.555Z,8.54
2023-03-19T21:00:28.986Z,8.50
2023-03-19T21:03:05.528Z,8.46
2023-03-19T21:05:49.469Z,8.42
2023-03-19T21:08:45.404Z,8.38
2023-03-19T21:11:23.680Z,8.35
2023-03-19T21:14:30.054Z,8.31
2023-03-19T21:17:04.023Z,8.26
2023-03-19T21:19:40.753Z,8.20
2023-03-19T21:22:21.819Z,8.16
2023-03-19T21:25:08.018Z,8.12
2023-03-19T21:27:42.063Z,8.08
2023-03-19T21:30:17.069Z,8.04
2023-03-19T21:32:50.628Z,8.00
2023-03-19T21:35:26.942Z,7.95
2023-03-19T21:37:56.651Z,7.91
2023-03-19T21:40:32.190Z,7.88
2023-03-19T21:43:03.833Z,7.88
2023-03-19T21:45:37.284Z,7.86
2023-03-19T21:48:09.901Z,7.82
2023-03-19T21:50:42.116Z,7.79
2023-03-19T21:53:13.702Z,7.77
2023-03-19T21:55:44.043Z,7.74
2023-03-19T21:58:18.905Z,7.71
2023-03-19T22:00:47.723Z,7.63
2023-03-19T22:03:20.719Z,7.56
2023-03-19T22:05:51.752Z,7.50
2023-03-19T22:08:23.126Z,7.46
2023-03-19T22:10:59.102Z,7.39
2023-03-19T22:13:34.361Z,7.32
2023-03-19T22:16:05.005Z,7.27
2023-03-19T22:18:34.186Z,7.24
2023-03-19T22:21:03.344Z,7.19
2023-03-19T22:23:33.723Z,7.17
2023-03-19T22:26:02.613Z,7.15
2023-03-19T22:28:35.059Z,7.13
2023-03-19T22:31:06.044Z,7.10
2023-03-19T22:33:35.330Z,7.05
2023-03-19T22:36:05.722Z,6.99
2023-03-19T22:38:35.510Z,6.94
2023-03-19T22:41:12.814Z,6.88
2023-03-19T22:43:46.652Z,6.78
2023-03-19T22:46:18.559Z,6.71
2023-03-19T22:48:53.997Z,6.66
2023-03-19T22:51:25.157Z,6.60
2023-03-19T22:53:55.664Z,6.53
2023-03-19T22:56:24.550Z,6.47
2023-03-19T22:58:57.049Z,6.40
2023-03-19T23:01:42.610Z,6.33
2023-03-19T23:04:22.827Z,6.26
2023-03-19T23:06:57.771Z,6.19
2023-03-19T23:09:32.618Z,6.14
2023-03-19T23:12:02.757Z,6.12
2023-03-19T23:14:35.029Z,6.11
2023-03-19T23:17:15.141Z,6.11
2023-03-19T23:19:44.795Z,6.11
2023-03-19T23:22:16.948Z,6.07
2023-03-19T23:24:45.822Z,6.00
2023-03-19T23:27:28.309Z,5.95
2023-03-19T23:29:59.585Z,5.93
2023-03-19T23:32:29.316Z,5.91
2023-03-19T23:35:01.693Z,5.90
2023-03-19T23:37:32.894Z,5.88
2023-03-19T23:40:02.196Z,5.85
2023-03-19T23:42:33.086Z,5.83
2023-03-19T23:45:06.828Z,5.80
2023-03-19T23:47:36.565Z,5.74
2023-03-19T23:50:12.670Z,5.71
2023-03-19T23:52:42.853Z,5.68
2023-03-19T23:55:11.936Z,5.65
2023-03-19T23:57:42.237Z,5.59
